Aguti, Brazil
Current Conditions -  °F | °C
As of 12:00 AM on Sunday 26 Oct 2014 (Local Time) from SBNF Reporting Station
Broken Clouds Broken Clouds  
Wind Chill: 73°   Ceiling: 4500
Heat Index: 73°   Visibility: 6mi
Dew Point: 66°   Wind: 9mph
Humidity: 78%   Direction: 40°NE
Pressure: 29.94"   Gusts: NA
Location:  27.32°S, 49.12°W
Report Text: SBNF 260200Z 04008KT 9999 SCT012 BKN045 23/19 Q1014
Loading
Personal Weather Stations






























Interactive Weather Map
Tropical Storm Tracking
New forecast layout! Learn more

10-Day Weather Forecast

Advertisements
Track Severe Weather on mobile